createdAt,value
2017-11-11T00:00:45.117Z,1008.06
2017-11-11T00:02:46.789Z,1007.96
2017-11-11T00:04:48.440Z,1008.03
2017-11-11T00:06:50.046Z,1008.06
2017-11-11T00:08:52.009Z,1008.07
2017-11-11T00:10:53.843Z,1008.06
2017-11-11T00:12:55.617Z,1008.06
2017-11-11T00:14:57.290Z,1008.06
2017-11-11T00:16:58.959Z,1008.04
2017-11-11T00:19:01.119Z,1008.03
2017-11-11T00:21:02.742Z,1008.07
2017-11-11T00:23:04.370Z,1008.08
2017-11-11T00:25:06.081Z,1008.08
2017-11-11T00:27:07.639Z,1008.05
2017-11-11T00:29:09.399Z,1008.06
2017-11-11T00:31:11.047Z,1008.04
2017-11-11T00:33:12.733Z,1007.99
2017-11-11T00:35:14.600Z,1007.92
2017-11-11T00:37:16.493Z,1007.92
2017-11-11T00:39:18.210Z,1007.85
2017-11-11T00:41:19.849Z,1007.81
2017-11-11T00:43:21.590Z,1007.84
2017-11-11T00:45:23.411Z,1007.85
2017-11-11T00:47:25.098Z,1007.75
2017-11-11T00:49:26.749Z,1007.78
2017-11-11T00:51:28.410Z,1007.75
2017-11-11T00:53:30.322Z,1007.67
2017-11-11T00:55:32.273Z,1007.68
2017-11-11T00:57:34.221Z,1007.66
2017-11-11T00:59:35.962Z,1007.70
2017-11-11T01:01:37.607Z,1007.73
2017-11-11T01:03:39.288Z,1007.65
2017-11-11T01:05:41.149Z,1007.62
2017-11-11T01:07:42.880Z,1007.69
2017-11-11T01:09:44.533Z,1007.63
2017-11-11T01:11:46.355Z,1007.66
2017-11-11T01:13:48.247Z,1007.67
2017-11-11T01:15:49.956Z,1007.63
2017-11-11T01:17:51.753Z,1007.55
2017-11-11T01:19:53.718Z,1007.53
2017-11-11T01:21:55.317Z,1007.53
2017-11-11T01:23:56.977Z,1007.48
2017-11-11T01:25:58.751Z,1007.47
2017-11-11T01:28:00.401Z,1007.43
2017-11-11T01:30:02.422Z,1007.40
2017-11-11T01:32:04.136Z,1007.40
2017-11-11T01:34:06.112Z,1007.40
2017-11-11T01:36:07.821Z,1007.33
2017-11-11T01:38:09.527Z,1007.34
2017-11-11T01:40:11.460Z,1007.27
2017-11-11T01:42:13.153Z,1007.26
2017-11-11T01:44:14.680Z,1007.21
2017-11-11T01:46:16.640Z,1007.16
2017-11-11T01:48:18.275Z,1007.12
2017-11-11T01:50:20.243Z,1007.11
2017-11-11T01:52:22.311Z,1007.09
2017-11-11T01:54:24.054Z,1007.07
2017-11-11T01:56:26.002Z,1007.06
2017-11-11T01:58:28.048Z,1007.12
2017-11-11T02:00:29.720Z,1007.15
2017-11-11T02:02:31.349Z,1007.21
2017-11-11T02:04:33.069Z,1007.20
2017-11-11T02:06:34.689Z,1007.17
2017-11-11T02:08:36.370Z,1007.11
2017-11-11T02:10:37.989Z,1007.05
2017-11-11T02:12:39.693Z,1007.06
2017-11-11T02:14:41.316Z,1007.04
2017-11-11T02:16:43.279Z,1007.01
2017-11-11T02:18:44.968Z,1006.96
2017-11-11T02:20:46.632Z,1006.97
2017-11-11T02:22:48.343Z,1006.88
2017-11-11T02:24:50.064Z,1006.93
2017-11-11T02:26:51.820Z,1006.87
2017-11-11T02:28:53.814Z,1006.93
2017-11-11T02:30:55.421Z,1006.86
2017-11-11T02:32:57.120Z,1006.98
2017-11-11T02:34:59.161Z,1006.95
2017-11-11T02:37:00.872Z,1006.91
2017-11-11T02:39:02.544Z,1006.97
2017-11-11T02:41:04.222Z,1006.96
2017-11-11T02:43:05.926Z,1006.84
2017-11-11T02:45:07.650Z,1006.85
2017-11-11T02:47:09.474Z,1006.80
2017-11-11T02:49:11.163Z,1006.65
2017-11-11T02:51:12.878Z,1006.62
2017-11-11T02:53:14.991Z,1006.73
2017-11-11T02:55:16.600Z,1006.72
2017-11-11T02:57:18.594Z,1006.70
2017-11-11T02:59:20.475Z,1006.68
2017-11-11T03:01:22.036Z,1006.64
2017-11-11T03:03:23.752Z,1006.67
2017-11-11T03:05:25.423Z,1006.69
2017-11-11T03:07:27.249Z,1006.69
2017-11-11T03:09:29.001Z,1006.70
2017-11-11T03:11:30.768Z,1006.64
2017-11-11T03:13:32.637Z,1006.60
2017-11-11T03:15:34.674Z,1006.57
2017-11-11T03:17:36.278Z,1006.51
2017-11-11T03:19:38.187Z,1006.48
2017-11-11T03:21:39.825Z,1006.49
2017-11-11T03:23:41.716Z,1006.46
2017-11-11T03:25:43.587Z,1006.40
2017-11-11T03:27:45.606Z,1006.49
2017-11-11T03:29:47.393Z,1006.47
2017-11-11T03:31:49.085Z,1006.40
2017-11-11T03:33:50.793Z,1006.37
2017-11-11T03:35:52.732Z,1006.36
2017-11-11T03:37:54.335Z,1006.35
2017-11-11T03:39:56.025Z,1006.30
2017-11-11T03:41:57.983Z,1006.35
2017-11-11T03:44:00.167Z,1006.30
2017-11-11T03:46:01.852Z,1006.25
2017-11-11T03:48:03.528Z,1006.17
2017-11-11T03:50:05.330Z,1006.12
2017-11-11T03:52:06.976Z,1006.15
2017-11-11T03:54:08.634Z,1006.14
2017-11-11T03:56:10.279Z,1006.08
2017-11-11T03:58:11.884Z,1006.13
2017-11-11T04:00:13.508Z,1006.03
2017-11-11T04:02:15.185Z,1006.08
2017-11-11T04:04:16.825Z,1006.06
2017-11-11T04:06:18.671Z,1006.04
2017-11-11T04:08:20.317Z,1006.10
2017-11-11T04:10:21.982Z,1006.14
2017-11-11T04:12:23.970Z,1006.13
2017-11-11T04:14:25.664Z,1006.04
2017-11-11T04:16:27.349Z,1005.97
2017-11-11T04:18:29.151Z,1005.97
2017-11-11T04:20:30.896Z,1005.93
2017-11-11T04:22:32.645Z,1005.94
2017-11-11T04:24:34.349Z,1005.86
2017-11-11T04:26:36.044Z,1005.85
2017-11-11T04:28:38.062Z,1005.88
2017-11-11T04:30:39.710Z,1005.83
2017-11-11T04:32:41.387Z,1005.85
2017-11-11T04:34:43.029Z,1005.85
2017-11-11T04:36:44.698Z,1005.80
2017-11-11T04:38:46.482Z,1005.75
2017-11-11T04:40:48.182Z,1005.70
2017-11-11T04:42:49.914Z,1005.71
2017-11-11T04:44:51.621Z,1005.69
2017-11-11T04:46:53.290Z,1005.63
2017-11-11T04:48:55.186Z,1005.64
2017-11-11T04:50:56.824Z,1005.58
2017-11-11T04:52:58.543Z,1005.56
2017-11-11T04:55:00.162Z,1005.58
2017-11-11T04:57:01.835Z,1005.60
2017-11-11T04:59:03.572Z,1005.57
2017-11-11T05:01:05.166Z,1005.50
2017-11-11T05:03:06.733Z,1005.43
2017-11-11T05:05:08.218Z,1005.42
2017-11-11T05:07:09.697Z,1005.40
2017-11-11T05:09:11.450Z,1005.41
2017-11-11T05:11:13.031Z,1005.34
2017-11-11T05:13:14.746Z,1005.37
2017-11-11T05:15:16.406Z,1005.30
2017-11-11T05:17:18.258Z,1005.30
2017-11-11T05:19:19.830Z,1005.26
2017-11-11T05:21:21.515Z,1005.32
2017-11-11T05:23:23.394Z,1005.33
2017-11-11T05:25:25.033Z,1005.54
2017-11-11T05:27:26.733Z,1005.66
2017-11-11T05:29:28.620Z,1005.64
2017-11-11T05:31:30.289Z,1005.71
2017-11-11T05:33:31.960Z,1005.61
2017-11-11T05:35:33.551Z,1005.61
2017-11-11T05:37:35.321Z,1005.61
2017-11-11T05:39:37.115Z,1005.48
2017-11-11T05:41:38.855Z,1005.53
2017-11-11T05:43:40.525Z,1005.44
2017-11-11T05:45:42.129Z,1005.45
2017-11-11T05:47:43.782Z,1005.39
2017-11-11T05:49:45.618Z,1005.37
2017-11-11T05:51:47.425Z,1005.32
2017-11-11T05:53:49.187Z,1005.21
2017-11-11T05:55:50.801Z,1005.17
2017-11-11T05:57:52.234Z,1005.20
2017-11-11T05:59:53.710Z,1005.17
2017-11-11T06:01:55.471Z,1005.05
2017-11-11T06:03:57.050Z,1005.19
2017-11-11T06:05:58.747Z,1005.04
2017-11-11T06:08:00.465Z,1005.08
2017-11-11T06:10:01.924Z,1005.00
2017-11-11T06:12:03.401Z,1005.01
2017-11-11T06:14:04.901Z,1004.96
2017-11-11T06:16:06.335Z,1004.98
2017-11-11T06:18:07.754Z,1004.99
2017-11-11T06:20:09.391Z,1005.01
2017-11-11T06:22:10.950Z,1005.04
2017-11-11T06:24:12.643Z,1005.08
2017-11-11T06:26:14.207Z,1005.16
2017-11-11T06:28:15.825Z,1005.12
2017-11-11T06:30:17.509Z,1005.12
2017-11-11T06:32:19.238Z,1004.87
2017-11-11T06:34:20.923Z,1004.84
2017-11-11T06:36:22.594Z,1004.81
2017-11-11T06:38:24.318Z,1004.72
2017-11-11T06:40:25.990Z,1004.72
2017-11-11T06:42:27.790Z,1004.72
2017-11-11T06:44:29.430Z,1004.74
2017-11-11T06:46:31.183Z,1004.68
2017-11-11T06:48:32.958Z,1004.73
2017-11-11T06:50:34.469Z,1004.74
2017-11-11T06:52:36.148Z,1004.72
2017-11-11T06:54:37.809Z,1004.66
2017-11-11T06:56:39.413Z,1004.62
2017-11-11T06:58:41.183Z,1004.63
2017-11-11T07:00:42.790Z,1004.58
2017-11-11T07:02:44.282Z,1004.56
2017-11-11T07:04:45.707Z,1004.61
2017-11-11T07:06:47.338Z,1004.53
2017-11-11T07:08:49.033Z,1004.52
2017-11-11T07:10:50.641Z,1004.56
2017-11-11T07:12:53.208Z,1004.45
2017-11-11T07:14:54.955Z,1004.37
2017-11-11T07:16:56.732Z,1004.38
2017-11-11T07:18:58.488Z,1004.41
2017-11-11T07:21:00.201Z,1004.37
2017-11-11T07:23:02.005Z,1004.39
2017-11-11T07:25:03.704Z,1004.36
2017-11-11T07:27:05.441Z,1004.35
2017-11-11T07:29:07.237Z,1004.34
2017-11-11T07:31:08.944Z,1004.38
2017-11-11T07:33:10.665Z,1004.35
2017-11-11T07:35:12.362Z,1004.33
2017-11-11T07:37:14.034Z,1004.34
2017-11-11T07:39:15.863Z,1004.36
2017-11-11T07:41:17.542Z,1004.36
2017-11-11T07:43:19.220Z,1004.43
2017-11-11T07:45:21.062Z,1004.44
2017-11-11T07:47:22.935Z,1004.36
2017-11-11T07:49:24.672Z,1004.34
2017-11-11T07:51:26.402Z,1004.31
2017-11-11T07:53:28.206Z,1004.28
2017-11-11T07:55:29.955Z,1004.22
2017-11-11T07:57:31.624Z,1004.23
2017-11-11T07:59:33.269Z,1004.13
2017-11-11T08:01:34.915Z,1004.10
2017-11-11T08:03:36.769Z,1004.08
2017-11-11T08:05:38.425Z,1004.00
2017-11-11T08:07:40.089Z,1003.97
2017-11-11T08:09:41.913Z,1004.03
2017-11-11T08:11:43.648Z,1004.06
2017-11-11T08:13:45.356Z,1004.08
2017-11-11T08:15:46.951Z,1004.02
2017-11-11T08:17:48.660Z,1003.96
2017-11-11T08:19:50.342Z,1003.90
2017-11-11T08:21:52.046Z,1003.94
2017-11-11T08:23:53.774Z,1003.89
2017-11-11T08:25:55.446Z,1003.92
2017-11-11T08:27:57.174Z,1003.90
2017-11-11T08:29:58.815Z,1003.82
2017-11-11T08:32:00.485Z,1003.78
2017-11-11T08:34:02.253Z,1003.80
2017-11-11T08:36:03.928Z,1003.73
2017-11-11T08:38:05.649Z,1003.76
2017-11-11T08:40:07.546Z,1003.68
2017-11-11T08:42:09.365Z,1003.69
2017-11-11T08:44:10.955Z,1003.71
2017-11-11T08:46:12.718Z,1003.69
2017-11-11T08:48:14.450Z,1003.69
2017-11-11T08:50:16.443Z,1003.69
2017-11-11T08:52:18.926Z,1003.65
2017-11-11T08:54:20.880Z,1003.67
2017-11-11T08:56:22.606Z,1003.63
2017-11-11T08:58:24.084Z,1003.73
2017-11-11T09:00:25.594Z,1003.72
2017-11-11T09:02:27.143Z,1003.72
2017-11-11T09:04:28.641Z,1003.70
2017-11-11T09:06:30.170Z,1003.67
2017-11-11T09:08:31.640Z,1003.74
2017-11-11T09:10:33.228Z,1003.69
2017-11-11T09:12:34.715Z,1003.68
2017-11-11T09:14:36.197Z,1003.69
2017-11-11T09:16:37.669Z,1003.66
2017-11-11T09:18:39.228Z,1003.67
2017-11-11T09:20:40.858Z,1003.64
2017-11-11T09:22:42.517Z,1003.67
2017-11-11T09:24:44.174Z,1003.65
2017-11-11T09:26:45.825Z,1003.62
2017-11-11T09:28:47.542Z,1003.63
2017-11-11T09:30:49.301Z,1003.68
2017-11-11T09:32:51.015Z,1003.66
2017-11-11T09:34:53.216Z,1003.70
2017-11-11T09:36:54.833Z,1003.68
2017-11-11T09:38:56.585Z,1003.64
2017-11-11T09:40:58.290Z,1003.62
2017-11-11T09:43:00.026Z,1003.55
2017-11-11T09:45:01.666Z,1003.57
2017-11-11T09:47:03.494Z,1003.54
2017-11-11T09:49:05.170Z,1003.46
2017-11-11T09:51:07.621Z,1003.47
2017-11-11T09:53:09.172Z,1003.42
2017-11-11T09:55:10.829Z,1003.44
2017-11-11T09:57:12.467Z,1003.38
2017-11-11T09:59:14.250Z,1003.40
2017-11-11T10:01:16.863Z,1003.39
2017-11-11T10:03:18.656Z,1003.37
2017-11-11T10:05:20.319Z,1003.36
2017-11-11T10:07:21.958Z,1003.36
2017-11-11T10:09:23.645Z,1003.36
2017-11-11T10:11:25.373Z,1003.35
2017-11-11T10:13:27.214Z,1003.34
2017-11-11T10:15:29.155Z,1003.31
